Lexington, KY (40503)

3:40 PM EDT on July 28, 2016 (GMT -0400)
| | Change Station
Active Advisory: Flash Flood Watch

Elev -9999 ft 0.00 °N, 0.00 °E | Updated

Mostly Cloudy
Mostly Cloudy
77 °F
Feels Like 77 °F
N
5
Wind Variable Wind from SW
Gusts mph

Today
High -- | Low -- °F
--% Chance of Precip.
Yesterday
High -- | Low -- °F
Precip. -- in
Pressure 29.92 in
Visibility 10.0 miles
Clouds Mostly Cloudy 1200 ft
Mostly Cloudy 7500 ft
Overcast 11000 ft
Dew Point 70 °F
Humidity 79%
Rainfall --
Snow Depth Not available.
6:38 AM 8:50 PM
Waning Crescent, 29% visible
SPECI KLEX 281934Z 22005KT 10SM -RA BKN012 BKN075 OVC110 23/22 A2992 RMK AO2 P0000 T02330217 $
Pressure 29.92 in
Visibility 10.0 miles
Clouds Mostly Cloudy 1200 ft
Mostly Cloudy 7500 ft
Overcast 11000 ft
Dew Point 70 °F
Humidity 79%
Rainfall --
Snow Depth Not available.
6:38 AM 8:50 PM
Waning Crescent, 29% visible
SPECI KLEX 281934Z 22005KT 10SM -RA BKN012 BKN075 OVC110 23/22 A2992 RMK AO2 P0000 T02330217 $

10-Day Weather Forecast

Almanac

Astronomy

Jul. 28, 2016 Rise Set
Actual Time
Civil Twilight
Nautical Twilight
Astronomical Twilight
Moon
Length of Visible Light
Length of Day
Tomorrow will be .
, % of the Moon is Illuminated

Today's Extremes

State Highs State Lows

Community

WunderPhotos

Upload Photos

1,928,193 photos uploaded!

WunderBlog® & News

Nearby

Air Quality

  Air Quality AQ Index Pollutant
Not available.

Snow Depth

Station Depth Elevation

Earthquake Activity

City Distance Mag. Time & Date
Minimum magnitude displayed is 2.5.

Coastal Water Temperatures

Place Temperature

Stations

Nearby Weather Stations

Station Location Temp. Windchill Dew Point Humidity Wind Precip. Elev Updated Type
                   

Watches & Warnings

Flash Flood Watch
Issued: 2:37 PM CDT Jul. 28, 2016 – National Weather Service

... Flash Flood Watch remains in effect until 2 am EDT /1 am CDT/
Friday...

The Flash Flood Watch continues for

* portions of east central Kentucky... north central Kentucky and
south central Kentucky... including the following areas... in
east central Kentucky... Anderson... Bourbon... Boyle... Clark...
Fayette... Franklin... Garrard... Harrison... Jessamine...
Madison... Mercer... Nicholas... Scott and Woodford. In north
central Kentucky... Washington. In south central Kentucky...
Adair... Casey... Clinton... Cumberland... Lincoln... Marion...
Russell and Taylor.

* Until 2 am EDT /1 am CDT/ Friday

* the potential for showers and thunderstorms with potentially
intense rainfall rates will linger into the evening hours before
ending.

* Localized flash flooding is possible in and near the watch
area.

Precautionary/preparedness actions...

A Flash Flood Watch means that conditions may develop that lead
to flash flooding. Flash flooding is a very dangerous situation.

You should monitor later forecasts and be prepared to take action
should flash flood warnings be issued.